sensor_id;sensor_type;location;lat;lon;timestamp;P1;durP1;ratioP1;P2;durP2;ratioP2
47659;SDS011;33403;43.608;1.458;2022-07-05T00:00:49;5.22;;;2.17;;
47659;SDS011;33403;43.608;1.458;2022-07-05T00:03:15;2.42;;;2.03;;
47659;SDS011;33403;43.608;1.458;2022-07-05T00:05:41;8.10;;;2.60;;
47659;SDS011;33403;43.608;1.458;2022-07-05T00:08:07;4.50;;;2.00;;
47659;SDS011;33403;43.608;1.458;2022-07-05T00:10:33;3.90;;;2.00;;
47659;SDS011;33403;43.608;1.458;2022-07-05T00:13:00;4.10;;;2.25;;
47659;SDS011;33403;43.608;1.458;2022-07-05T00:15:26;3.25;;;1.92;;
47659;SDS011;33403;43.608;1.458;2022-07-05T00:17:52;5.40;;;2.15;;
47659;SDS011;33403;43.608;1.458;2022-07-05T00:20:18;3.95;;;2.20;;
47659;SDS011;33403;43.608;1.458;2022-07-05T00:22:44;6.80;;;2.45;;
47659;SDS011;33403;43.608;1.458;2022-07-05T00:25:10;7.35;;;2.25;;
47659;SDS011;33403;43.608;1.458;2022-07-05T00:27:36;5.25;;;2.15;;
47659;SDS011;33403;43.608;1.458;2022-07-05T00:30:03;4.28;;;2.22;;
47659;SDS011;33403;43.608;1.458;2022-07-05T00:32:30;5.70;;;2.13;;
47659;SDS011;33403;43.608;1.458;2022-07-05T00:34:56;3.85;;;2.05;;
47659;SDS011;33403;43.608;1.458;2022-07-05T00:37:22;4.80;;;2.15;;
47659;SDS011;33403;43.608;1.458;2022-07-05T00:39:48;6.10;;;2.40;;
47659;SDS011;33403;43.608;1.458;2022-07-05T00:42:14;3.97;;;2.22;;
47659;SDS011;33403;43.608;1.458;2022-07-05T00:44:40;8.48;;;2.22;;
47659;SDS011;33403;43.608;1.458;2022-07-05T00:47:07;4.13;;;2.20;;
47659;SDS011;33403;43.608;1.458;2022-07-05T00:49:34;4.93;;;2.08;;
47659;SDS011;33403;43.608;1.458;2022-07-05T00:52:01;3.58;;;1.80;;
47659;SDS011;33403;43.608;1.458;2022-07-05T00:54:27;2.65;;;1.70;;
47659;SDS011;33403;43.608;1.458;2022-07-05T00:56:53;4.65;;;2.10;;
47659;SDS011;33403;43.608;1.458;2022-07-05T00:59:19;5.55;;;2.50;;
47659;SDS011;33403;43.608;1.458;2022-07-05T01:01:45;5.30;;;2.35;;
47659;SDS011;33403;43.608;1.458;2022-07-05T01:04:12;2.28;;;2.00;;
47659;SDS011;33403;43.608;1.458;2022-07-05T01:06:38;6.55;;;2.10;;
47659;SDS011;33403;43.608;1.458;2022-07-05T01:09:05;4.32;;;2.22;;
47659;SDS011;33403;43.608;1.458;2022-07-05T01:11:31;5.10;;;2.08;;
47659;SDS011;33403;43.608;1.458;2022-07-05T01:14:00;4.40;;;2.08;;
47659;SDS011;33403;43.608;1.458;2022-07-05T01:16:27;3.78;;;1.98;;
47659;SDS011;33403;43.608;1.458;2022-07-05T01:18:53;4.88;;;2.20;;
47659;SDS011;33403;43.608;1.458;2022-07-05T01:21:19;4.05;;;2.20;;
47659;SDS011;33403;43.608;1.458;2022-07-05T01:23:47;4.40;;;2.13;;
47659;SDS011;33403;43.608;1.458;2022-07-05T01:26:13;3.95;;;2.05;;
47659;SDS011;33403;43.608;1.458;2022-07-05T01:28:39;7.20;;;2.40;;
47659;SDS011;33403;43.608;1.458;2022-07-05T01:31:05;6.03;;;2.20;;
47659;SDS011;33403;43.608;1.458;2022-07-05T01:33:31;5.85;;;2.42;;
47659;SDS011;33403;43.608;1.458;2022-07-05T01:35:58;4.93;;;2.17;;
47659;SDS011;33403;43.608;1.458;2022-07-05T01:38:24;2.47;;;1.70;;
47659;SDS011;33403;43.608;1.458;2022-07-05T01:40:50;4.43;;;1.90;;
47659;SDS011;33403;43.608;1.458;2022-07-05T01:43:17;5.50;;;2.10;;
47659;SDS011;33403;43.608;1.458;2022-07-05T01:45:45;5.13;;;2.80;;
47659;SDS011;33403;43.608;1.458;2022-07-05T01:48:12;6.30;;;2.60;;
47659;SDS011;33403;43.608;1.458;2022-07-05T01:50:46;4.03;;;2.17;;
47659;SDS011;33403;43.608;1.458;2022-07-05T01:53:22;6.15;;;2.33;;
47659;SDS011;33403;43.608;1.458;2022-07-05T01:55:48;3.80;;;2.00;;
47659;SDS011;33403;43.608;1.458;2022-07-05T01:58:15;5.97;;;2.22;;
47659;SDS011;33403;43.608;1.458;2022-07-05T02:00:45;3.65;;;2.20;;
47659;SDS011;33403;43.608;1.458;2022-07-05T02:03:11;7.68;;;2.78;;
47659;SDS011;33403;43.608;1.458;2022-07-05T02:05:38;4.38;;;2.00;;
47659;SDS011;33403;43.608;1.458;2022-07-05T02:08:04;6.10;;;2.50;;
47659;SDS011;33403;43.608;1.458;2022-07-05T02:10:30;3.90;;;2.00;;
47659;SDS011;33403;43.608;1.458;2022-07-05T02:12:56;4.13;;;2.10;;
47659;SDS011;33403;43.608;1.458;2022-07-05T02:15:22;5.03;;;2.10;;
47659;SDS011;33403;43.608;1.458;2022-07-05T02:17:48;4.57;;;2.65;;
47659;SDS011;33403;43.608;1.458;2022-07-05T02:20:14;6.20;;;2.47;;
47659;SDS011;33403;43.608;1.458;2022-07-05T02:22:40;5.85;;;2.25;;
47659;SDS011;33403;43.608;1.458;2022-07-05T02:25:07;3.55;;;2.17;;
47659;SDS011;33403;43.608;1.458;2022-07-05T02:27:33;4.82;;;2.28;;
47659;SDS011;33403;43.608;1.458;2022-07-05T02:29:59;4.10;;;2.13;;
47659;SDS011;33403;43.608;1.458;2022-07-05T02:32:26;3.25;;;1.88;;
47659;SDS011;33403;43.608;1.458;2022-07-05T02:34:52;4.10;;;2.30;;
47659;SDS011;33403;43.608;1.458;2022-07-05T02:37:18;6.55;;;2.47;;
47659;SDS011;33403;43.608;1.458;2022-07-05T02:39:44;6.65;;;2.28;;
47659;SDS011;33403;43.608;1.458;2022-07-05T02:42:10;4.40;;;2.20;;
47659;SDS011;33403;43.608;1.458;2022-07-05T02:44:36;4.70;;;2.28;;
47659;SDS011;33403;43.608;1.458;2022-07-05T02:47:03;3.88;;;2.00;;
47659;SDS011;33403;43.608;1.458;2022-07-05T02:49:29;4.20;;;2.08;;
47659;SDS011;33403;43.608;1.458;2022-07-05T02:51:55;6.22;;;2.40;;
47659;SDS011;33403;43.608;1.458;2022-07-05T02:54:21;3.17;;;2.10;;
47659;SDS011;33403;43.608;1.458;2022-07-05T02:56:47;7.22;;;2.83;;
47659;SDS011;33403;43.608;1.458;2022-07-05T02:59:13;4.03;;;2.10;;
47659;SDS011;33403;43.608;1.458;2022-07-05T03:01:39;4.80;;;2.30;;
47659;SDS011;33403;43.608;1.458;2022-07-05T03:04:05;3.65;;;2.30;;
47659;SDS011;33403;43.608;1.458;2022-07-05T03:06:31;4.25;;;2.38;;
47659;SDS011;33403;43.608;1.458;2022-07-05T03:08:57;8.13;;;2.50;;
47659;SDS011;33403;43.608;1.458;2022-07-05T03:11:23;5.10;;;2.30;;
47659;SDS011;33403;43.608;1.458;2022-07-05T03:13:49;4.82;;;2.38;;
47659;SDS011;33403;43.608;1.458;2022-07-05T03:16:15;3.70;;;2.60;;
47659;SDS011;33403;43.608;1.458;2022-07-05T03:18:41;5.75;;;2.70;;
47659;SDS011;33403;43.608;1.458;2022-07-05T03:21:07;7.07;;;3.00;;
47659;SDS011;33403;43.608;1.458;2022-07-05T03:23:33;5.32;;;2.72;;
47659;SDS011;33403;43.608;1.458;2022-07-05T03:25:59;7.43;;;3.05;;
47659;SDS011;33403;43.608;1.458;2022-07-05T03:28:25;6.57;;;3.28;;
47659;SDS011;33403;43.608;1.458;2022-07-05T03:30:51;5.80;;;2.90;;
47659;SDS011;33403;43.608;1.458;2022-07-05T03:33:17;5.03;;;3.38;;
47659;SDS011;33403;43.608;1.458;2022-07-05T03:35:43;4.47;;;3.17;;
47659;SDS011;33403;43.608;1.458;2022-07-05T03:38:09;9.02;;;3.72;;
47659;SDS011;33403;43.608;1.458;2022-07-05T03:40:36;7.05;;;3.83;;
47659;SDS011;33403;43.608;1.458;2022-07-05T03:43:02;7.30;;;3.70;;
47659;SDS011;33403;43.608;1.458;2022-07-05T03:45:28;7.55;;;3.50;;
47659;SDS011;33403;43.608;1.458;2022-07-05T03:47:57;8.02;;;3.70;;
47659;SDS011;33403;43.608;1.458;2022-07-05T03:50:23;9.88;;;4.13;;
47659;SDS011;33403;43.608;1.458;2022-07-05T03:52:49;6.88;;;4.00;;
47659;SDS011;33403;43.608;1.458;2022-07-05T03:55:15;8.82;;;4.07;;
47659;SDS011;33403;43.608;1.458;2022-07-05T03:57:41;6.75;;;3.83;;
47659;SDS011;33403;43.608;1.458;2022-07-05T04:00:07;6.60;;;3.90;;
47659;SDS011;33403;43.608;1.458;2022-07-05T04:02:33;8.23;;;3.70;;
47659;SDS011;33403;43.608;1.458;2022-07-05T04:04:59;8.55;;;3.80;;
47659;SDS011;33403;43.608;1.458;2022-07-05T04:07:25;6.90;;;3.80;;
47659;SDS011;33403;43.608;1.458;2022-07-05T04:09:51;7.13;;;4.18;;
47659;SDS011;33403;43.608;1.458;2022-07-05T04:12:17;5.95;;;3.85;;
47659;SDS011;33403;43.608;1.458;2022-07-05T04:14:43;7.68;;;4.07;;
47659;SDS011;33403;43.608;1.458;2022-07-05T04:17:09;9.05;;;4.20;;
47659;SDS011;33403;43.608;1.458;2022-07-05T04:19:35;6.93;;;4.00;;
47659;SDS011;33403;43.608;1.458;2022-07-05T04:22:01;7.68;;;4.20;;
47659;SDS011;33403;43.608;1.458;2022-07-05T04:24:27;8.65;;;4.13;;
47659;SDS011;33403;43.608;1.458;2022-07-05T04:26:54;8.38;;;4.38;;
47659;SDS011;33403;43.608;1.458;2022-07-05T04:29:20;10.07;;;4.00;;
47659;SDS011;33403;43.608;1.458;2022-07-05T04:31:46;7.55;;;4.10;;
47659;SDS011;33403;43.608;1.458;2022-07-05T04:34:12;7.93;;;4.07;;
47659;SDS011;33403;43.608;1.458;2022-07-05T04:36:38;9.55;;;4.20;;
47659;SDS011;33403;43.608;1.458;2022-07-05T04:39:05;7.45;;;4.35;;
47659;SDS011;33403;43.608;1.458;2022-07-05T04:41:31;7.22;;;4.40;;
47659;SDS011;33403;43.608;1.458;2022-07-05T04:43:57;7.90;;;4.18;;
47659;SDS011;33403;43.608;1.458;2022-07-05T04:46:24;11.20;;;4.85;;
47659;SDS011;33403;43.608;1.458;2022-07-05T04:48:50;8.25;;;4.53;;
47659;SDS011;33403;43.608;1.458;2022-07-05T04:51:16;7.35;;;4.05;;
47659;SDS011;33403;43.608;1.458;2022-07-05T04:53:42;8.77;;;3.80;;
47659;SDS011;33403;43.608;1.458;2022-07-05T04:56:08;7.50;;;3.90;;
47659;SDS011;33403;43.608;1.458;2022-07-05T04:58:34;8.73;;;3.92;;
47659;SDS011;33403;43.608;1.458;2022-07-05T05:01:00;7.28;;;3.80;;
47659;SDS011;33403;43.608;1.458;2022-07-05T05:03:26;8.32;;;3.72;;
47659;SDS011;33403;43.608;1.458;2022-07-05T05:05:52;10.02;;;4.20;;
47659;SDS011;33403;43.608;1.458;2022-07-05T05:08:18;10.75;;;4.30;;
47659;SDS011;33403;43.608;1.458;2022-07-05T05:10:44;9.38;;;4.25;;
47659;SDS011;33403;43.608;1.458;2022-07-05T05:13:10;6.63;;;4.00;;
47659;SDS011;33403;43.608;1.458;2022-07-05T05:15:36;9.13;;;3.75;;
47659;SDS011;33403;43.608;1.458;2022-07-05T05:18:02;7.50;;;3.85;;
47659;SDS011;33403;43.608;1.458;2022-07-05T05:20:28;8.50;;;3.97;;
47659;SDS011;33403;43.608;1.458;2022-07-05T05:22:55;9.27;;;4.15;;
47659;SDS011;33403;43.608;1.458;2022-07-05T05:25:21;8.10;;;3.50;;
47659;SDS011;33403;43.608;1.458;2022-07-05T05:27:47;7.30;;;3.92;;
47659;SDS011;33403;43.608;1.458;2022-07-05T05:30:15;6.88;;;3.72;;
47659;SDS011;33403;43.608;1.458;2022-07-05T05:32:41;8.85;;;3.88;;
47659;SDS011;33403;43.608;1.458;2022-07-05T05:35:07;8.68;;;3.83;;
47659;SDS011;33403;43.608;1.458;2022-07-05T05:40:31;8.13;;;3.63;;
47659;SDS011;33403;43.608;1.458;2022-07-05T05:43:02;7.43;;;4.00;;
47659;SDS011;33403;43.608;1.458;2022-07-05T05:45:29;7.22;;;3.38;;
47659;SDS011;33403;43.608;1.458;2022-07-05T05:47:56;8.00;;;3.50;;
47659;SDS011;33403;43.608;1.458;2022-07-05T05:50:23;8.43;;;3.75;;
47659;SDS011;33403;43.608;1.458;2022-07-05T05:52:49;8.57;;;3.65;;
47659;SDS011;33403;43.608;1.458;2022-07-05T05:55:16;8.27;;;3.58;;
47659;SDS011;33403;43.608;1.458;2022-07-05T05:57:42;9.65;;;3.80;;
47659;SDS011;33403;43.608;1.458;2022-07-05T06:00:08;5.78;;;3.60;;
47659;SDS011;33403;43.608;1.458;2022-07-05T06:02:34;11.18;;;3.80;;
47659;SDS011;33403;43.608;1.458;2022-07-05T06:05:00;5.95;;;3.42;;
47659;SDS011;33403;43.608;1.458;2022-07-05T06:07:26;7.88;;;3.92;;
47659;SDS011;33403;43.608;1.458;2022-07-05T06:09:52;7.55;;;3.50;;
47659;SDS011;33403;43.608;1.458;2022-07-05T06:12:18;8.27;;;3.67;;
47659;SDS011;33403;43.608;1.458;2022-07-05T06:14:44;6.63;;;3.72;;
47659;SDS011;33403;43.608;1.458;2022-07-05T06:17:10;5.22;;;3.35;;
47659;SDS011;33403;43.608;1.458;2022-07-05T06:19:36;4.85;;;3.08;;
47659;SDS011;33403;43.608;1.458;2022-07-05T06:22:02;10.32;;;3.80;;
47659;SDS011;33403;43.608;1.458;2022-07-05T06:24:29;7.85;;;3.55;;
47659;SDS011;33403;43.608;1.458;2022-07-05T06:26:55;9.05;;;3.33;;
47659;SDS011;33403;43.608;1.458;2022-07-05T06:29:21;6.70;;;3.20;;
47659;SDS011;33403;43.608;1.458;2022-07-05T06:31:47;7.97;;;3.15;;
47659;SDS011;33403;43.608;1.458;2022-07-05T06:34:13;5.90;;;3.35;;
47659;SDS011;33403;43.608;1.458;2022-07-05T06:36:39;4.57;;;2.88;;
47659;SDS011;33403;43.608;1.458;2022-07-05T06:39:05;6.53;;;3.15;;
47659;SDS011;33403;43.608;1.458;2022-07-05T06:41:31;5.95;;;2.88;;
47659;SDS011;33403;43.608;1.458;2022-07-05T06:43:57;7.90;;;3.67;;
47659;SDS011;33403;43.608;1.458;2022-07-05T06:46:23;6.40;;;3.20;;
47659;SDS011;33403;43.608;1.458;2022-07-05T06:48:49;6.60;;;2.88;;
47659;SDS011;33403;43.608;1.458;2022-07-05T06:51:15;5.75;;;2.80;;
47659;SDS011;33403;43.608;1.458;2022-07-05T06:53:41;6.10;;;3.05;;
47659;SDS011;33403;43.608;1.458;2022-07-05T06:56:07;7.05;;;3.30;;
47659;SDS011;33403;43.608;1.458;2022-07-05T06:58:33;3.97;;;2.60;;
47659;SDS011;33403;43.608;1.458;2022-07-05T07:00:59;6.30;;;3.00;;
47659;SDS011;33403;43.608;1.458;2022-07-05T07:03:25;5.13;;;2.47;;
47659;SDS011;33403;43.608;1.458;2022-07-05T07:05:51;5.07;;;3.15;;
47659;SDS011;33403;43.608;1.458;2022-07-05T07:08:17;6.50;;;3.00;;
47659;SDS011;33403;43.608;1.458;2022-07-05T07:11:02;4.20;;;2.78;;
47659;SDS011;33403;43.608;1.458;2022-07-05T07:13:28;4.63;;;2.65;;
47659;SDS011;33403;43.608;1.458;2022-07-05T07:15:54;3.05;;;2.22;;
47659;SDS011;33403;43.608;1.458;2022-07-05T07:18:20;5.00;;;2.80;;
47659;SDS011;33403;43.608;1.458;2022-07-05T07:20:46;6.78;;;2.72;;
47659;SDS011;33403;43.608;1.458;2022-07-05T07:23:12;7.80;;;3.03;;
47659;SDS011;33403;43.608;1.458;2022-07-05T07:25:38;5.53;;;2.67;;
47659;SDS011;33403;43.608;1.458;2022-07-05T07:28:04;6.68;;;2.78;;
47659;SDS011;33403;43.608;1.458;2022-07-05T07:30:31;3.63;;;2.47;;
47659;SDS011;33403;43.608;1.458;2022-07-05T07:32:57;4.13;;;2.55;;
47659;SDS011;33403;43.608;1.458;2022-07-05T07:35:24;4.50;;;2.60;;
47659;SDS011;33403;43.608;1.458;2022-07-05T07:37:50;4.55;;;2.50;;
47659;SDS011;33403;43.608;1.458;2022-07-05T07:40:16;4.50;;;2.80;;
47659;SDS011;33403;43.608;1.458;2022-07-05T07:42:43;5.03;;;2.65;;
47659;SDS011;33403;43.608;1.458;2022-07-05T07:45:09;4.15;;;2.53;;
47659;SDS011;33403;43.608;1.458;2022-07-05T07:47:35;6.28;;;3.33;;
47659;SDS011;33403;43.608;1.458;2022-07-05T07:50:02;5.75;;;2.90;;
47659;SDS011;33403;43.608;1.458;2022-07-05T07:52:28;6.85;;;2.90;;
47659;SDS011;33403;43.608;1.458;2022-07-05T07:55:02;4.72;;;2.80;;
47659;SDS011;33403;43.608;1.458;2022-07-05T07:57:28;7.32;;;2.90;;
47659;SDS011;33403;43.608;1.458;2022-07-05T07:59:54;3.45;;;2.83;;
47659;SDS011;33403;43.608;1.458;2022-07-05T08:02:20;5.82;;;3.28;;
47659;SDS011;33403;43.608;1.458;2022-07-05T08:04:48;4.82;;;2.88;;
47659;SDS011;33403;43.608;1.458;2022-07-05T08:07:14;5.47;;;2.72;;
47659;SDS011;33403;43.608;1.458;2022-07-05T08:09:40;6.53;;;2.80;;
47659;SDS011;33403;43.608;1.458;2022-07-05T08:12:06;4.25;;;2.67;;
47659;SDS011;33403;43.608;1.458;2022-07-05T08:14:32;7.75;;;3.35;;
47659;SDS011;33403;43.608;1.458;2022-07-05T08:16:58;8.13;;;3.08;;
47659;SDS011;33403;43.608;1.458;2022-07-05T08:19:24;6.10;;;2.88;;
47659;SDS011;33403;43.608;1.458;2022-07-05T08:22:09;5.93;;;2.92;;
47659;SDS011;33403;43.608;1.458;2022-07-05T08:24:36;5.93;;;3.10;;
47659;SDS011;33403;43.608;1.458;2022-07-05T08:27:03;6.38;;;3.47;;
47659;SDS011;33403;43.608;1.458;2022-07-05T08:29:29;5.15;;;3.42;;
47659;SDS011;33403;43.608;1.458;2022-07-05T08:31:55;4.82;;;2.88;;
47659;SDS011;33403;43.608;1.458;2022-07-05T08:34:21;4.38;;;3.00;;
47659;SDS011;33403;43.608;1.458;2022-07-05T08:36:47;4.30;;;2.72;;
47659;SDS011;33403;43.608;1.458;2022-07-05T08:39:14;5.25;;;2.92;;
47659;SDS011;33403;43.608;1.458;2022-07-05T08:41:41;5.32;;;3.20;;
47659;SDS011;33403;43.608;1.458;2022-07-05T08:44:07;6.78;;;2.97;;
47659;SDS011;33403;43.608;1.458;2022-07-05T08:46:36;5.35;;;2.90;;
47659;SDS011;33403;43.608;1.458;2022-07-05T08:49:03;9.93;;;3.30;;
47659;SDS011;33403;43.608;1.458;2022-07-05T08:51:30;5.53;;;3.10;;
47659;SDS011;33403;43.608;1.458;2022-07-05T08:53:58;4.82;;;3.28;;
47659;SDS011;33403;43.608;1.458;2022-07-05T08:56:24;6.88;;;3.05;;
47659;SDS011;33403;43.608;1.458;2022-07-05T08:58:50;4.82;;;3.00;;
47659;SDS011;33403;43.608;1.458;2022-07-05T09:01:16;5.13;;;3.08;;
47659;SDS011;33403;43.608;1.458;2022-07-05T09:03:42;6.90;;;2.97;;
47659;SDS011;33403;43.608;1.458;2022-07-05T09:06:10;6.50;;;3.10;;
47659;SDS011;33403;43.608;1.458;2022-07-05T09:08:37;7.82;;;3.13;;
47659;SDS011;33403;43.608;1.458;2022-07-05T09:11:06;5.22;;;3.22;;
47659;SDS011;33403;43.608;1.458;2022-07-05T09:13:37;4.13;;;3.17;;
47659;SDS011;33403;43.608;1.458;2022-07-05T09:16:04;3.78;;;2.80;;
47659;SDS011;33403;43.608;1.458;2022-07-05T09:18:47;7.72;;;2.90;;
47659;SDS011;33403;43.608;1.458;2022-07-05T09:23:39;5.45;;;2.80;;
47659;SDS011;33403;43.608;1.458;2022-07-05T09:26:05;5.22;;;3.30;;
47659;SDS011;33403;43.608;1.458;2022-07-05T09:28:31;7.50;;;3.00;;
47659;SDS011;33403;43.608;1.458;2022-07-05T09:30:58;4.10;;;3.10;;
47659;SDS011;33403;43.608;1.458;2022-07-05T09:33:24;5.70;;;2.97;;
47659;SDS011;33403;43.608;1.458;2022-07-05T09:35:56;4.78;;;2.90;;
47659;SDS011;33403;43.608;1.458;2022-07-05T09:38:23;4.82;;;2.90;;
47659;SDS011;33403;43.608;1.458;2022-07-05T09:43:19;4.43;;;3.05;;
47659;SDS011;33403;43.608;1.458;2022-07-05T09:45:52;3.90;;;2.55;;
47659;SDS011;33403;43.608;1.458;2022-07-05T09:48:18;3.85;;;2.90;;
47659;SDS011;33403;43.608;1.458;2022-07-05T09:50:44;3.72;;;2.42;;
47659;SDS011;33403;43.608;1.458;2022-07-05T09:53:11;5.05;;;2.78;;
47659;SDS011;33403;43.608;1.458;2022-07-05T09:55:37;3.95;;;2.50;;
47659;SDS011;33403;43.608;1.458;2022-07-05T09:58:04;4.80;;;2.70;;
47659;SDS011;33403;43.608;1.458;2022-07-05T10:00:30;3.25;;;2.53;;
47659;SDS011;33403;43.608;1.458;2022-07-05T10:02:57;3.78;;;2.83;;
47659;SDS011;33403;43.608;1.458;2022-07-05T10:05:30;3.70;;;2.60;;
47659;SDS011;33403;43.608;1.458;2022-07-05T10:07:57;4.55;;;2.67;;
47659;SDS011;33403;43.608;1.458;2022-07-05T10:10:24;5.50;;;2.60;;
47659;SDS011;33403;43.608;1.458;2022-07-05T10:12:51;5.75;;;2.50;;
47659;SDS011;33403;43.608;1.458;2022-07-05T10:15:19;5.70;;;2.35;;
47659;SDS011;33403;43.608;1.458;2022-07-05T10:20:33;4.63;;;2.40;;
47659;SDS011;33403;43.608;1.458;2022-07-05T10:23:03;2.40;;;2.20;;
47659;SDS011;33403;43.608;1.458;2022-07-05T10:25:30;3.20;;;2.10;;
47659;SDS011;33403;43.608;1.458;2022-07-05T10:27:59;2.20;;;1.95;;
47659;SDS011;33403;43.608;1.458;2022-07-05T10:30:25;2.20;;;1.90;;
47659;SDS011;33403;43.608;1.458;2022-07-05T10:32:51;3.47;;;2.10;;
47659;SDS011;33403;43.608;1.458;2022-07-05T10:35:17;2.70;;;2.10;;
47659;SDS011;33403;43.608;1.458;2022-07-05T10:37:44;2.53;;;2.05;;
47659;SDS011;33403;43.608;1.458;2022-07-05T10:40:10;2.42;;;1.70;;
47659;SDS011;33403;43.608;1.458;2022-07-05T10:45:22;3.05;;;1.95;;
47659;SDS011;33403;43.608;1.458;2022-07-05T10:50:46;2.13;;;1.60;;
47659;SDS011;33403;43.608;1.458;2022-07-05T10:53:14;3.10;;;2.10;;
47659;SDS011;33403;43.608;1.458;2022-07-05T10:58:25;3.15;;;2.22;;
47659;SDS011;33403;43.608;1.458;2022-07-05T11:03:44;3.53;;;2.03;;
47659;SDS011;33403;43.608;1.458;2022-07-05T11:06:21;4.05;;;1.80;;
47659;SDS011;33403;43.608;1.458;2022-07-05T11:11:32;4.25;;;2.22;;
47659;SDS011;33403;43.608;1.458;2022-07-05T11:14:02;4.07;;;1.75;;
47659;SDS011;33403;43.608;1.458;2022-07-05T11:16:32;3.13;;;1.90;;
47659;SDS011;33403;43.608;1.458;2022-07-05T11:21:30;2.92;;;1.83;;
47659;SDS011;33403;43.608;1.458;2022-07-05T11:26:41;5.57;;;1.90;;
47659;SDS011;33403;43.608;1.458;2022-07-05T11:29:09;2.33;;;1.50;;
47659;SDS011;33403;43.608;1.458;2022-07-05T11:32:06;3.63;;;1.80;;
47659;SDS011;33403;43.608;1.458;2022-07-05T11:34:32;2.50;;;1.58;;
47659;SDS011;33403;43.608;1.458;2022-07-05T11:37:32;3.97;;;1.67;;
47659;SDS011;33403;43.608;1.458;2022-07-05T11:42:31;2.42;;;1.40;;
47659;SDS011;33403;43.608;1.458;2022-07-05T11:44:58;1.58;;;1.25;;
47659;SDS011;33403;43.608;1.458;2022-07-05T11:47:24;3.22;;;1.70;;
47659;SDS011;33403;43.608;1.458;2022-07-05T11:49:52;4.47;;;1.77;;
47659;SDS011;33403;43.608;1.458;2022-07-05T11:52:24;4.63;;;1.90;;
47659;SDS011;33403;43.608;1.458;2022-07-05T11:54:50;2.17;;;1.50;;
47659;SDS011;33403;43.608;1.458;2022-07-05T11:57:17;2.33;;;1.50;;
47659;SDS011;33403;43.608;1.458;2022-07-05T11:59:44;4.15;;;1.30;;
47659;SDS011;33403;43.608;1.458;2022-07-05T12:02:10;5.50;;;1.50;;
47659;SDS011;33403;43.608;1.458;2022-07-05T12:04:36;1.67;;;1.23;;
47659;SDS011;33403;43.608;1.458;2022-07-05T12:07:02;2.08;;;1.50;;
47659;SDS011;33403;43.608;1.458;2022-07-05T12:09:29;2.83;;;1.40;;
47659;SDS011;33403;43.608;1.458;2022-07-05T12:12:18;3.90;;;1.45;;
47659;SDS011;33403;43.608;1.458;2022-07-05T12:15:03;1.73;;;1.50;;
47659;SDS011;33403;43.608;1.458;2022-07-05T12:17:29;2.20;;;1.50;;
47659;SDS011;33403;43.608;1.458;2022-07-05T12:19:56;3.00;;;1.50;;
47659;SDS011;33403;43.608;1.458;2022-07-05T12:22:55;1.88;;;1.60;;
47659;SDS011;33403;43.608;1.458;2022-07-05T12:25:14;3.45;;;1.50;;
47659;SDS011;33403;43.608;1.458;2022-07-05T12:27:41;3.28;;;1.50;;
47659;SDS011;33403;43.608;1.458;2022-07-05T12:30:08;2.88;;;1.60;;
47659;SDS011;33403;43.608;1.458;2022-07-05T12:32:52;4.40;;;1.60;;
47659;SDS011;33403;43.608;1.458;2022-07-05T12:38:23;2.10;;;1.55;;
47659;SDS011;33403;43.608;1.458;2022-07-05T12:40:56;1.67;;;1.30;;
47659;SDS011;33403;43.608;1.458;2022-07-05T12:43:22;3.50;;;1.35;;
47659;SDS011;33403;43.608;1.458;2022-07-05T12:46:01;3.00;;;1.67;;
47659;SDS011;33403;43.608;1.458;2022-07-05T12:48:31;1.60;;;1.50;;
47659;SDS011;33403;43.608;1.458;2022-07-05T12:50:58;3.03;;;1.50;;
47659;SDS011;33403;43.608;1.458;2022-07-05T12:53:24;2.85;;;1.50;;
47659;SDS011;33403;43.608;1.458;2022-07-05T12:56:09;2.33;;;1.60;;
47659;SDS011;33403;43.608;1.458;2022-07-05T12:58:55;1.70;;;1.60;;
47659;SDS011;33403;43.608;1.458;2022-07-05T13:01:26;3.13;;;1.60;;
47659;SDS011;33403;43.608;1.458;2022-07-05T13:03:57;3.97;;;1.75;;
47659;SDS011;33403;43.608;1.458;2022-07-05T13:06:24;2.95;;;1.65;;
47659;SDS011;33403;43.608;1.458;2022-07-05T13:09:04;3.03;;;1.85;;
47659;SDS011;33403;43.608;1.458;2022-07-05T13:11:30;2.00;;;1.50;;
47659;SDS011;33403;43.608;1.458;2022-07-05T13:13:56;1.65;;;1.55;;
47659;SDS011;33403;43.608;1.458;2022-07-05T13:16:22;2.00;;;1.60;;
47659;SDS011;33403;43.608;1.458;2022-07-05T13:18:48;4.28;;;1.70;;
47659;SDS011;33403;43.608;1.458;2022-07-05T13:21:14;2.47;;;1.73;;
47659;SDS011;33403;43.608;1.458;2022-07-05T13:23:40;3.80;;;1.98;;
47659;SDS011;33403;43.608;1.458;2022-07-05T13:26:06;2.47;;;1.70;;
47659;SDS011;33403;43.608;1.458;2022-07-05T13:28:33;3.75;;;1.85;;
47659;SDS011;33403;43.608;1.458;2022-07-05T13:30:59;1.75;;;1.55;;
47659;SDS011;33403;43.608;1.458;2022-07-05T13:33:25;2.67;;;1.52;;
47659;SDS011;33403;43.608;1.458;2022-07-05T13:35:51;2.00;;;1.50;;
47659;SDS011;33403;43.608;1.458;2022-07-05T13:38:17;2.92;;;2.00;;
47659;SDS011;33403;43.608;1.458;2022-07-05T13:40:43;2.00;;;1.63;;
47659;SDS011;33403;43.608;1.458;2022-07-05T13:43:09;2.78;;;1.48;;
47659;SDS011;33403;43.608;1.458;2022-07-05T13:45:35;3.90;;;1.92;;
47659;SDS011;33403;43.608;1.458;2022-07-05T13:48:01;2.05;;;1.50;;
47659;SDS011;33403;43.608;1.458;2022-07-05T13:50:27;3.05;;;1.50;;
47659;SDS011;33403;43.608;1.458;2022-07-05T13:52:57;2.58;;;1.80;;
47659;SDS011;33403;43.608;1.458;2022-07-05T13:55:23;3.15;;;1.42;;
47659;SDS011;33403;43.608;1.458;2022-07-05T13:57:49;1.95;;;1.55;;
47659;SDS011;33403;43.608;1.458;2022-07-05T14:00:15;3.72;;;1.60;;
47659;SDS011;33403;43.608;1.458;2022-07-05T14:02:42;3.63;;;1.63;;
47659;SDS011;33403;43.608;1.458;2022-07-05T14:05:08;1.67;;;1.50;;
47659;SDS011;33403;43.608;1.458;2022-07-05T14:07:35;3.60;;;1.52;;
47659;SDS011;33403;43.608;1.458;2022-07-05T14:10:01;6.32;;;2.08;;
47659;SDS011;33403;43.608;1.458;2022-07-05T14:12:27;1.77;;;1.30;;
47659;SDS011;33403;43.608;1.458;2022-07-05T14:14:53;3.50;;;1.80;;
47659;SDS011;33403;43.608;1.458;2022-07-05T14:17:19;2.55;;;1.40;;
47659;SDS011;33403;43.608;1.458;2022-07-05T14:19:45;3.42;;;1.60;;
47659;SDS011;33403;43.608;1.458;2022-07-05T14:22:11;1.85;;;1.20;;
47659;SDS011;33403;43.608;1.458;2022-07-05T14:24:37;2.85;;;1.40;;
47659;SDS011;33403;43.608;1.458;2022-07-05T14:27:03;3.75;;;1.55;;
47659;SDS011;33403;43.608;1.458;2022-07-05T14:29:33;2.30;;;1.58;;
47659;SDS011;33403;43.608;1.458;2022-07-05T14:31:59;2.40;;;1.60;;
47659;SDS011;33403;43.608;1.458;2022-07-05T14:34:25;2.85;;;1.50;;
47659;SDS011;33403;43.608;1.458;2022-07-05T14:36:53;2.40;;;1.40;;
47659;SDS011;33403;43.608;1.458;2022-07-05T14:39:19;1.80;;;1.27;;
47659;SDS011;33403;43.608;1.458;2022-07-05T14:41:46;2.28;;;1.42;;
47659;SDS011;33403;43.608;1.458;2022-07-05T14:44:12;1.95;;;1.40;;
47659;SDS011;33403;43.608;1.458;2022-07-05T14:46:40;3.08;;;1.40;;
47659;SDS011;33403;43.608;1.458;2022-07-05T14:49:06;4.07;;;1.50;;
47659;SDS011;33403;43.608;1.458;2022-07-05T14:51:32;7.15;;;1.60;;
47659;SDS011;33403;43.608;1.458;2022-07-05T14:53:58;2.65;;;1.50;;
47659;SDS011;33403;43.608;1.458;2022-07-05T14:56:24;2.30;;;1.40;;
47659;SDS011;33403;43.608;1.458;2022-07-05T14:58:50;3.15;;;1.30;;
47659;SDS011;33403;43.608;1.458;2022-07-05T15:01:16;4.32;;;1.65;;
47659;SDS011;33403;43.608;1.458;2022-07-05T15:03:43;2.92;;;1.27;;
47659;SDS011;33403;43.608;1.458;2022-07-05T15:06:09;4.30;;;1.60;;
47659;SDS011;33403;43.608;1.458;2022-07-05T15:08:35;2.80;;;1.42;;
47659;SDS011;33403;43.608;1.458;2022-07-05T15:11:02;3.28;;;1.50;;
47659;SDS011;33403;43.608;1.458;2022-07-05T15:13:29;2.72;;;1.48;;
47659;SDS011;33403;43.608;1.458;2022-07-05T15:15:55;2.15;;;1.33;;
47659;SDS011;33403;43.608;1.458;2022-07-05T15:18:22;2.47;;;1.60;;
47659;SDS011;33403;43.608;1.458;2022-07-05T15:20:48;3.53;;;1.50;;
47659;SDS011;33403;43.608;1.458;2022-07-05T15:23:16;2.47;;;1.50;;